Time;durP1;ratioP1;P1;durP2;ratioP2;P2;SDS_P1;SDS_P2;PMS_P1;PMS_P2;Temp;Humidity;BMP_temperature;BMP_pressure;BME280_temperature;BME280_humidity;BME280_pressure;Samples;Min_cycle;Max_cycle;Signal;HPM_P1;HPM_P2
2021/11/22 00:02:22;;;;;;;29.70;26.83;;;4.50;99.90;;;;;;5004786;28;20646;-78
2021/11/22 00:04:49;;;;;;;30.93;27.73;;;4.50;99.90;;;;;;4990890;28;20257;-79
2021/11/22 00:07:17;;;;;;;31.60;28.23;;;4.50;99.90;;;;;;4993015;28;20267;-80
2021/11/22 00:09:44;;;;;;;30.40;27.23;;;4.50;99.90;;;;;;4987426;28;20431;-77
2021/11/22 00:12:13;;;;;;;30.87;27.60;;;4.50;99.90;;;;;;4993438;28;20213;-79
2021/11/22 00:14:39;;;;;;;30.00;27.10;;;4.60;99.90;;;;;;4988666;28;20201;-79
2021/11/22 00:17:06;;;;;;;29.43;26.57;;;4.60;99.90;;;;;;4990047;28;20213;-78
2021/11/22 00:19:34;;;;;;;31.00;27.93;;;4.50;99.90;;;;;;4990125;28;20198;-79
2021/11/22 00:22:02;;;;;;;31.37;28.23;;;4.50;99.90;;;;;;4995626;28;20316;-79
2021/11/22 00:24:29;;;;;;;31.90;28.60;;;4.60;99.90;;;;;;4991787;28;20305;-79
2021/11/22 00:26:56;;;;;;;32.30;28.87;;;4.60;99.90;;;;;;5001799;28;20267;-79
2021/11/22 00:29:24;;;;;;;30.93;27.77;;;4.60;99.90;;;;;;4988824;28;20578;-79
2021/11/22 00:32:10;;;;;;;34.47;28.40;;;4.50;99.90;;;;;;4981075;28;20596;-79
2021/11/22 00:35:00;;;;;;;31.07;27.77;;;4.50;99.90;;;;;;4990291;28;20205;-79
2021/11/22 00:37:54;;;;;;;30.00;26.73;;;4.50;99.90;;;;;;4982072;28;20774;-79
2021/11/22 00:40:21;;;;;;;32.00;28.67;;;4.60;99.90;;;;;;4992775;28;20715;-79
2021/11/22 00:42:49;;;;;;;31.57;27.77;;;4.50;99.90;;;;;;4995642;28;20209;-79
2021/11/22 00:45:17;;;;;;;31.33;28.03;;;4.50;99.90;;;;;;4986378;28;20213;-79
2021/11/22 00:47:45;;;;;;;32.27;28.80;;;4.50;99.90;;;;;;5006416;28;20674;-79
2021/11/22 00:50:13;;;;;;;32.53;29.07;;;4.50;99.90;;;;;;4994688;28;20216;-79
2021/11/22 00:52:40;;;;;;;31.23;27.93;;;4.50;99.90;;;;;;4986129;28;20221;-79
2021/11/22 00:55:08;;;;;;;31.30;27.97;;;4.50;99.90;;;;;;4989797;28;20205;-79
2021/11/22 00:57:35;;;;;;;31.23;28.10;;;4.50;99.90;;;;;;4989377;28;20201;-79
2021/11/22 01:00:02;;;;;;;31.63;28.33;;;4.50;99.90;;;;;;4990111;28;20613;-79
2021/11/22 01:02:30;;;;;;;31.97;28.53;;;4.60;99.90;;;;;;5025332;28;20213;-79
2021/11/22 01:04:57;;;;;;;32.53;29.03;;;4.60;99.90;;;;;;4991128;28;20248;-79
2021/11/22 01:07:24;;;;;;;33.60;29.70;;;4.60;99.90;;;;;;5003505;28;20256;-79
2021/11/22 01:09:51;;;;;;;32.17;27.93;;;4.60;99.90;;;;;;5002599;28;20746;-79
2021/11/22 01:12:18;;;;;;;31.07;27.27;;;4.60;99.90;;;;;;4986778;28;20225;-79
2021/11/22 01:14:44;;;;;;;36.57;29.93;;;4.60;99.90;;;;;;5004809;28;20220;-79
2021/11/22 01:17:11;;;;;;;33.20;29.87;;;4.60;99.90;;;;;;4989530;28;20231;-79
2021/11/22 01:19:39;;;;;;;32.63;28.77;;;4.60;99.90;;;;;;4987852;28;20196;-78
2021/11/22 01:22:06;;;;;;;32.37;28.90;;;4.50;99.90;;;;;;4990396;28;20240;-79
2021/11/22 01:24:33;;;;;;;31.50;28.17;;;4.50;99.90;;;;;;4989637;28;20263;-79
2021/11/22 01:27:00;;;;;;;31.30;28.13;;;4.50;99.90;;;;;;5003831;28;20263;-79
2021/11/22 01:29:27;;;;;;;33.10;29.63;;;4.50;99.90;;;;;;4989213;28;20240;-79
2021/11/22 01:31:54;;;;;;;32.20;28.67;;;4.40;99.90;;;;;;5004036;28;20238;-79
2021/11/22 01:34:21;;;;;;;32.37;28.63;;;4.50;99.90;;;;;;4991648;28;20671;-79
2021/11/22 01:36:49;;;;;;;30.23;27.17;;;4.50;99.90;;;;;;4988687;28;20252;-79
2021/11/22 01:39:16;;;;;;;31.80;28.33;;;4.50;99.90;;;;;;5001567;28;20748;-79
2021/11/22 01:41:42;;;;;;;33.27;28.93;;;4.50;99.90;;;;;;4984776;28;20256;-79
2021/11/22 01:44:09;;;;;;;31.53;27.80;;;4.50;99.90;;;;;;4989881;28;20248;-79
2021/11/22 01:46:36;;;;;;;31.90;28.60;;;4.50;99.90;;;;;;4989072;28;20209;-80
2021/11/22 01:49:03;;;;;;;30.93;27.87;;;4.50;99.90;;;;;;4986710;28;20206;-79
2021/11/22 01:51:30;;;;;;;30.23;27.17;;;4.50;99.90;;;;;;4992106;28;20712;-79
2021/11/22 01:53:59;;;;;;;30.00;26.63;;;4.50;99.90;;;;;;4988624;28;20201;-79
2021/11/22 01:56:27;;;;;;;30.43;27.23;;;4.50;99.90;;;;;;5001773;28;20666;-79
2021/11/22 01:58:54;;;;;;;28.90;25.90;;;4.50;99.90;;;;;;4992719;28;20659;-79
2021/11/22 02:01:21;;;;;;;30.43;27.23;;;4.50;99.90;;;;;;5005415;28;20239;-79
2021/11/22 02:03:49;;;;;;;29.60;26.50;;;4.50;99.90;;;;;;5001166;28;20245;-78
2021/11/22 02:06:15;;;;;;;32.40;29.00;;;4.50;99.90;;;;;;5005026;28;20267;-79
2021/11/22 02:08:43;;;;;;;31.30;27.73;;;4.50;99.90;;;;;;5005757;28;20263;-77
2021/11/22 02:11:13;;;;;;;31.70;27.50;;;4.50;99.90;;;;;;5003880;28;20630;-79
2021/11/22 02:13:41;;;;;;;33.80;30.10;;;4.40;99.90;;;;;;4991157;28;20225;-78
2021/11/22 02:16:07;;;;;;;33.53;29.10;;;4.40;99.90;;;;;;4991020;28;20732;-78
2021/11/22 02:18:35;;;;;;;34.07;28.53;;;4.40;99.90;;;;;;5002252;28;20201;-79
2021/11/22 02:21:04;;;;;;;35.43;29.93;;;4.40;99.90;;;;;;5001462;28;20248;-79
2021/11/22 02:23:31;;;;;;;35.83;29.00;;;4.40;99.90;;;;;;4970158;28;20641;-78
2021/11/22 02:25:58;;;;;;;32.30;28.60;;;4.30;99.90;;;;;;5001435;28;20256;-78
2021/11/22 02:28:24;;;;;;;34.03;28.73;;;4.40;99.90;;;;;;4989881;28;20194;-78
2021/11/22 02:30:53;;;;;;;37.10;30.53;;;4.30;99.90;;;;;;4984427;28;20209;-78
2021/11/22 02:33:23;;;;;;;33.67;30.07;;;4.30;99.90;;;;;;4992372;28;20463;-78
2021/11/22 02:35:54;;;;;;;33.10;28.07;;;4.30;99.90;;;;;;4989252;28;20670;-80
2021/11/22 02:38:25;;;;;;;33.90;29.43;;;4.40;99.90;;;;;;4988532;28;20201;-79
2021/11/22 02:40:53;;;;;;;32.00;28.57;;;4.40;99.90;;;;;;4987828;28;20201;-79
2021/11/22 02:43:19;;;;;;;30.87;27.63;;;4.50;99.90;;;;;;5001649;28;20225;-79
2021/11/22 02:45:47;;;;;;;33.50;29.87;;;4.50;99.90;;;;;;4988960;28;20767;-79
2021/11/22 02:48:14;;;;;;;31.60;27.53;;;4.50;99.90;;;;;;4988512;28;20220;-79
2021/11/22 02:50:41;;;;;;;31.77;28.37;;;4.40;99.90;;;;;;4984923;28;20256;-79
2021/11/22 02:53:08;;;;;;;35.10;30.17;;;4.40;99.90;;;;;;4990492;28;20228;-79
2021/11/22 02:55:36;;;;;;;37.97;29.47;;;4.40;99.90;;;;;;4989531;28;20200;-79
2021/11/22 02:58:03;;;;;;;32.87;28.20;;;4.40;99.90;;;;;;4988492;28;20201;-79
2021/11/22 03:00:34;;;;;;;32.20;28.23;;;4.50;99.90;;;;;;4986750;28;20649;-79
2021/11/22 03:03:01;;;;;;;32.97;29.33;;;4.40;99.90;;;;;;4986748;28;20264;-79
2021/11/22 03:05:28;;;;;;;34.33;29.70;;;4.40;99.90;;;;;;4983213;28;20217;-79
2021/11/22 03:07:57;;;;;;;36.53;30.13;;;4.40;99.90;;;;;;4987075;28;20628;-79
2021/11/22 03:10:28;;;;;;;32.97;29.40;;;4.40;99.90;;;;;;4983802;28;20216;-79
2021/11/22 03:12:57;;;;;;;36.93;30.60;;;4.40;99.90;;;;;;5004118;28;20264;-79
2021/11/22 03:15:24;;;;;;;34.27;29.87;;;4.40;99.90;;;;;;4988485;28;20193;-79
2021/11/22 03:17:51;;;;;;;34.23;29.43;;;4.40;99.90;;;;;;4988496;28;20197;-79
2021/11/22 03:20:21;;;;;;;33.97;29.40;;;4.40;99.90;;;;;;5002806;28;20213;-79
2021/11/22 03:22:49;;;;;;;34.50;30.27;;;4.40;99.90;;;;;;4989599;28;20268;-79
2021/11/22 03:25:17;;;;;;;33.43;29.77;;;4.40;99.90;;;;;;4990234;28;20662;-79
2021/11/22 03:27:45;;;;;;;36.03;31.43;;;4.40;99.90;;;;;;4981189;28;20189;-79
2021/11/22 03:30:15;;;;;;;31.53;28.23;;;4.40;99.90;;;;;;4986401;28;20208;-79
2021/11/22 03:32:43;;;;;;;34.60;30.17;;;4.40;99.90;;;;;;4983780;28;20664;-79
2021/11/22 03:35:11;;;;;;;33.47;30.03;;;4.40;99.90;;;;;;4985596;28;20269;-78
2021/11/22 03:37:38;;;;;;;31.97;28.50;;;4.40;99.90;;;;;;4993169;28;20694;-80
2021/11/22 03:40:07;;;;;;;34.10;28.53;;;4.40;99.90;;;;;;4993285;28;20198;-82
2021/11/22 03:42:40;;;;;;;33.70;29.13;;;4.40;99.90;;;;;;4995779;28;20233;-78
2021/11/22 03:45:09;;;;;;;33.07;28.47;;;4.40;99.90;;;;;;4990940;28;20234;-78
2021/11/22 03:47:39;;;;;;;35.13;29.07;;;4.40;99.90;;;;;;4979380;28;20194;-79
2021/11/22 03:50:07;;;;;;;33.00;28.27;;;4.40;99.90;;;;;;4988797;28;20194;-78
2021/11/22 03:52:33;;;;;;;36.27;28.63;;;4.40;99.90;;;;;;4988626;28;20248;-78
2021/11/22 03:55:00;;;;;;;36.77;29.93;;;4.40;99.90;;;;;;4977484;28;20256;-78
2021/11/22 03:57:27;;;;;;;35.10;30.03;;;4.40;99.90;;;;;;5008734;28;20205;-78
2021/11/22 03:59:55;;;;;;;37.40;29.13;;;4.40;99.90;;;;;;4981860;28;20194;-78
2021/11/22 04:02:22;;;;;;;34.33;28.77;;;4.40;99.90;;;;;;4999193;28;21069;-78
2021/11/22 04:04:51;;;;;;;32.43;29.03;;;4.40;99.90;;;;;;4980808;28;20201;-78
2021/11/22 04:07:17;;;;;;;35.23;29.27;;;4.40;99.90;;;;;;4977189;28;20210;-78
2021/11/22 04:09:44;;;;;;;32.73;27.67;;;4.50;99.90;;;;;;4998117;28;20217;-78
2021/11/22 04:12:11;;;;;;;33.20;28.40;;;4.50;99.90;;;;;;5003507;28;20229;-78
2021/11/22 04:14:38;;;;;;;38.30;29.40;;;4.50;99.90;;;;;;5007787;28;20263;-80
2021/11/22 04:17:05;;;;;;;35.43;29.43;;;4.50;99.90;;;;;;5006757;28;20202;-79
2021/11/22 04:19:31;;;;;;;39.07;28.40;;;4.50;99.90;;;;;;5005057;28;20206;-80
2021/11/22 04:22:00;;;;;;;36.43;28.60;;;4.50;99.90;;;;;;4981858;28;20229;-78
2021/11/22 04:24:26;;;;;;;33.97;28.23;;;4.50;99.90;;;;;;4984539;28;20213;-79
2021/11/22 04:26:53;;;;;;;38.27;29.03;;;4.50;99.90;;;;;;5006329;28;20205;-80
2021/11/22 04:29:20;;;;;;;34.40;28.53;;;4.50;99.90;;;;;;5007773;28;20253;-79
2021/11/22 04:31:47;;;;;;;34.23;28.73;;;4.50;99.90;;;;;;4989336;28;20225;-79
2021/11/22 04:34:14;;;;;;;36.63;29.63;;;4.50;99.90;;;;;;5006647;28;20257;-80
2021/11/22 04:36:41;;;;;;;37.30;30.67;;;4.50;99.90;;;;;;4993330;28;20627;-80
2021/11/22 04:39:09;;;;;;;35.40;29.07;;;4.50;99.90;;;;;;5025509;28;20307;-80
2021/11/22 04:41:36;;;;;;;33.97;28.80;;;4.50;99.90;;;;;;5006025;28;20625;-80
2021/11/22 04:44:03;;;;;;;32.70;28.57;;;4.50;99.90;;;;;;5006279;28;20259;-80
2021/11/22 04:46:31;;;;;;;32.90;29.10;;;4.40;99.90;;;;;;4989387;28;20197;-80
2021/11/22 04:48:58;;;;;;;36.03;30.90;;;4.40;99.90;;;;;;4994089;28;20621;-80
2021/11/22 04:51:25;;;;;;;36.40;29.47;;;4.50;99.90;;;;;;4994823;28;20214;-80
2021/11/22 04:53:52;;;;;;;37.37;28.77;;;4.40;99.90;;;;;;5006727;28;20202;-79
2021/11/22 04:56:20;;;;;;;36.13;29.20;;;4.50;99.90;;;;;;4989149;28;20209;-79
2021/11/22 04:58:47;;;;;;;34.30;27.90;;;4.50;99.90;;;;;;4990532;28;20251;-80
2021/11/22 05:01:14;;;;;;;35.57;28.73;;;4.50;99.90;;;;;;4987543;28;20253;-81
2021/11/22 05:03:41;;;;;;;32.90;29.13;;;4.50;99.90;;;;;;4990973;28;20217;-80
2021/11/22 05:06:08;;;;;;;35.40;30.60;;;4.50;99.90;;;;;;4992870;28;20202;-78
2021/11/22 05:08:35;;;;;;;36.97;29.87;;;4.50;99.90;;;;;;4992185;28;20257;-80
2021/11/22 05:11:02;;;;;;;35.83;29.90;;;4.60;99.90;;;;;;4988352;28;20198;-79
2021/11/22 05:13:31;;;;;;;32.30;28.67;;;4.50;99.90;;;;;;4987943;28;20240;-79
2021/11/22 05:15:58;;;;;;;37.07;30.37;;;4.50;99.90;;;;;;5002240;28;20205;-80
2021/11/22 05:18:25;;;;;;;36.03;29.50;;;4.50;99.90;;;;;;5004481;28;20201;-79
2021/11/22 05:20:52;;;;;;;36.57;30.00;;;4.50;99.90;;;;;;4988115;28;20283;-80
2021/11/22 05:23:19;;;;;;;34.47;29.07;;;4.50;99.90;;;;;;5003576;28;20325;-80
2021/11/22 05:25:45;;;;;;;33.73;29.07;;;4.40;99.90;;;;;;4989339;28;20261;-79
2021/11/22 05:28:13;;;;;;;32.47;28.83;;;4.40;99.90;;;;;;4992817;28;20248;-79
2021/11/22 05:30:41;;;;;;;34.63;29.23;;;4.40;99.90;;;;;;4987300;28;20245;-80
2021/11/22 05:33:08;;;;;;;33.03;28.73;;;4.50;99.90;;;;;;4992779;28;20245;-80
2021/11/22 05:35:36;;;;;;;38.03;29.83;;;4.50;99.90;;;;;;5006705;28;20205;-79
2021/11/22 05:38:04;;;;;;;39.53;30.97;;;4.50;99.90;;;;;;4989183;28;20629;-79
2021/11/22 05:40:31;;;;;;;37.70;30.43;;;4.50;99.90;;;;;;5005046;28;20248;-78
2021/11/22 05:42:58;;;;;;;34.80;29.27;;;4.50;99.90;;;;;;5005033;28;20222;-80
2021/11/22 05:45:25;;;;;;;35.37;28.27;;;4.60;99.90;;;;;;4992196;28;20265;-80
2021/11/22 05:47:53;;;;;;;37.43;29.80;;;4.60;99.90;;;;;;4988704;28;20212;-79
2021/11/22 05:50:20;;;;;;;33.60;28.33;;;4.60;99.90;;;;;;5002926;28;20208;-80
2021/11/22 05:52:51;;;;;;;31.97;27.47;;;4.60;99.90;;;;;;5002580;28;20280;-80
2021/11/22 05:55:30;;;;;;;35.63;29.77;;;4.60;99.90;;;;;;4986168;28;20210;-80
2021/11/22 05:57:56;;;;;;;34.00;27.40;;;4.60;99.90;;;;;;4986243;28;20578;-81
2021/11/22 06:00:23;;;;;;;35.10;28.07;;;4.60;99.90;;;;;;4989977;28;20197;-80
2021/11/22 06:02:50;;;;;;;35.23;28.53;;;4.60;99.90;;;;;;4991768;28;20222;-79
2021/11/22 06:05:19;;;;;;;37.13;28.83;;;4.60;99.90;;;;;;4992367;28;20201;-79
2021/11/22 06:07:45;;;;;;;37.37;28.67;;;4.60;99.90;;;;;;5004451;28;20201;-79
2021/11/22 06:10:12;;;;;;;33.47;29.80;;;4.60;99.90;;;;;;5004159;28;20279;-80
2021/11/22 06:12:39;;;;;;;32.43;28.60;;;4.60;99.90;;;;;;4986938;28;20236;-80
2021/11/22 06:15:07;;;;;;;36.17;29.00;;;4.50;99.90;;;;;;4987304;28;20210;-79
2021/11/22 06:17:34;;;;;;;33.97;28.37;;;4.50;99.90;;;;;;4990813;28;20202;-78
2021/11/22 06:20:01;;;;;;;36.43;28.47;;;4.50;99.90;;;;;;5022077;28;20204;-79
2021/11/22 06:22:29;;;;;;;36.87;29.37;;;4.50;99.90;;;;;;4985862;28;20228;-79
2021/11/22 06:24:55;;;;;;;33.47;27.87;;;4.50;99.90;;;;;;5005685;28;20642;-80
2021/11/22 06:27:24;;;;;;;32.40;28.77;;;4.50;99.90;;;;;;4989267;28;20224;-79
2021/11/22 06:29:51;;;;;;;35.77;29.33;;;4.50;99.90;;;;;;4989692;28;20260;-80
2021/11/22 06:32:19;;;;;;;34.97;28.57;;;4.50;99.90;;;;;;5003588;28;20287;-78
2021/11/22 06:34:46;;;;;;;34.03;29.17;;;4.50;99.90;;;;;;4989096;28;20205;-80
2021/11/22 06:37:13;;;;;;;35.20;29.03;;;4.50;99.90;;;;;;4991548;28;20325;-80
2021/11/22 06:39:41;;;;;;;29.60;26.50;;;4.50;99.90;;;;;;4987428;28;20197;-79
2021/11/22 06:42:08;;;;;;;34.03;29.17;;;4.50;99.90;;;;;;4985950;28;20217;-79
2021/11/22 06:44:35;;;;;;;30.53;27.23;;;4.50;99.90;;;;;;4983972;28;20744;-80
2021/11/22 06:47:03;;;;;;;37.17;29.33;;;4.60;99.90;;;;;;4989620;28;20240;-80
2021/11/22 06:49:30;;;;;;;34.90;28.37;;;4.50;99.90;;;;;;4980932;28;20193;-80
2021/11/22 06:51:57;;;;;;;34.43;29.03;;;4.50;99.90;;;;;;5019566;28;20220;-79
2021/11/22 06:54:24;;;;;;;32.93;29.33;;;4.50;99.90;;;;;;4990586;28;20208;-79
2021/11/22 06:56:52;;;;;;;32.93;29.20;;;4.50;99.90;;;;;;4988106;28;20216;-80
2021/11/22 06:59:19;;;;;;;31.97;28.63;;;4.50;99.90;;;;;;4986521;28;20201;-79
2021/11/22 07:01:46;;;;;;;30.37;26.97;;;4.50;99.90;;;;;;5000645;28;20253;-80
2021/11/22 07:04:13;;;;;;;37.27;29.47;;;4.50;99.90;;;;;;4991689;28;20224;-79
2021/11/22 07:06:40;;;;;;;32.13;28.20;;;4.60;99.90;;;;;;5003537;28;20241;-79
2021/11/22 07:09:07;;;;;;;35.43;28.20;;;4.60;99.90;;;;;;5003368;28;20206;-78
2021/11/22 07:11:34;;;;;;;32.03;28.03;;;4.60;99.90;;;;;;5009867;28;20609;-78
2021/11/22 07:14:04;;;;;;;33.13;27.87;;;4.60;99.90;;;;;;4992089;28;20232;-80
2021/11/22 07:16:32;;;;;;;32.87;28.63;;;4.60;99.90;;;;;;4990950;28;20204;-78
2021/11/22 07:18:59;;;;;;;33.27;28.53;;;4.60;99.90;;;;;;4988482;28;20201;-78
2021/11/22 07:21:26;;;;;;;34.57;28.63;;;4.60;99.90;;;;;;4988634;28;20251;-78
2021/11/22 07:23:53;;;;;;;30.40;27.13;;;4.60;99.90;;;;;;4989868;28;20194;-78
2021/11/22 07:26:20;;;;;;;34.33;28.27;;;4.60;99.90;;;;;;4991748;28;20216;-79
2021/11/22 07:28:47;;;;;;;29.67;26.47;;;4.60;99.90;;;;;;5021879;28;20251;-78
2021/11/22 07:31:15;;;;;;;36.07;28.37;;;4.60;99.90;;;;;;4994574;28;20244;-79
2021/11/22 07:33:42;;;;;;;33.83;28.77;;;4.70;99.90;;;;;;4992353;28;20225;-79
2021/11/22 07:36:09;;;;;;;30.93;27.40;;;4.60;99.90;;;;;;4991306;28;20201;-80
2021/11/22 07:38:36;;;;;;;30.00;26.80;;;4.60;99.90;;;;;;4990313;28;20658;-80
2021/11/22 07:41:04;;;;;;;29.03;25.93;;;4.60;99.90;;;;;;4991158;28;20190;-80
2021/11/22 07:43:31;;;;;;;31.90;27.10;;;4.60;99.90;;;;;;5009813;28;20264;-80
2021/11/22 07:45:58;;;;;;;31.27;27.90;;;4.70;99.90;;;;;;4990651;28;20205;-78
2021/11/22 07:48:27;;;;;;;29.83;26.23;;;4.80;99.90;;;;;;5003727;28;20642;-78
2021/11/22 07:50:54;;;;;;;31.17;27.17;;;4.80;99.90;;;;;;5002553;28;20721;-78
2021/11/22 07:53:21;;;;;;;29.70;26.50;;;4.80;99.90;;;;;;5007101;28;20220;-79
2021/11/22 07:55:48;;;;;;;31.10;26.43;;;4.80;99.90;;;;;;5007208;28;20608;-80
2021/11/22 07:58:15;;;;;;;28.17;25.17;;;4.80;99.90;;;;;;4991425;28;20201;-79
2021/11/22 08:00:41;;;;;;;34.30;27.83;;;4.80;99.90;;;;;;4992264;28;20208;-79
2021/11/22 08:03:08;;;;;;;29.33;25.80;;;4.80;99.90;;;;;;4993543;28;20272;-79
2021/11/22 08:05:37;;;;;;;29.80;26.40;;;4.80;99.90;;;;;;5005088;28;20248;-79
2021/11/22 08:08:04;;;;;;;29.30;25.53;;;4.80;99.90;;;;;;4989022;28;20213;-79
2021/11/22 08:10:33;;;;;;;32.97;27.87;;;4.80;99.90;;;;;;5004081;28;20201;-79
2021/11/22 08:13:02;;;;;;;29.40;26.40;;;4.90;99.90;;;;;;4986733;28;20221;-79
2021/11/22 08:15:31;;;;;;;31.50;26.60;;;4.80;99.90;;;;;;4984993;28;20193;-78
2021/11/22 08:17:59;;;;;;;29.67;26.37;;;4.80;99.90;;;;;;4991519;28;20198;-78
2021/11/22 08:20:26;;;;;;;31.73;26.23;;;4.80;99.90;;;;;;4995144;28;20594;-79
2021/11/22 08:22:55;;;;;;;28.83;25.70;;;4.80;99.90;;;;;;4995087;28;20213;-80
2021/11/22 08:25:24;;;;;;;30.03;26.53;;;4.80;99.90;;;;;;5023155;28;20618;-77
2021/11/22 08:27:53;;;;;;;28.33;25.33;;;4.80;99.90;;;;;;4989285;28;20201;-78
2021/11/22 08:30:21;;;;;;;30.03;26.30;;;4.80;99.90;;;;;;4986629;28;20269;-78
2021/11/22 08:32:49;;;;;;;30.03;26.70;;;4.80;99.90;;;;;;4990647;28;20265;-79
2021/11/22 08:35:17;;;;;;;32.07;26.33;;;4.90;99.90;;;;;;5005753;28;20208;-79
2021/11/22 08:37:44;;;;;;;28.60;25.43;;;4.90;99.90;;;;;;4989019;28;20402;-80
2021/11/22 08:40:15;;;;;;;31.87;27.03;;;4.90;99.90;;;;;;4991238;28;20261;-80
2021/11/22 08:42:44;;;;;;;27.97;24.80;;;4.90;99.90;;;;;;4992241;28;20206;-79
2021/11/22 08:45:10;;;;;;;33.23;26.27;;;4.90;99.90;;;;;;4992951;28;20552;-78
2021/11/22 08:47:37;;;;;;;29.37;26.07;;;4.90;99.90;;;;;;5010356;28;20624;-79
2021/11/22 08:50:06;;;;;;;30.13;25.80;;;4.90;99.90;;;;;;5010421;28;20678;-78
2021/11/22 08:52:33;;;;;;;28.53;25.30;;;5.00;99.90;;;;;;4993486;28;20224;-79
2021/11/22 08:55:00;;;;;;;28.87;25.67;;;5.00;99.90;;;;;;4995380;28;20197;-78
2021/11/22 08:57:28;;;;;;;29.40;26.07;;;5.00;99.90;;;;;;4993645;28;20251;-80
2021/11/22 08:59:55;;;;;;;29.63;26.43;;;5.00;99.90;;;;;;4993752;28;20267;-80
2021/11/22 09:02:22;;;;;;;29.10;26.00;;;5.00;99.90;;;;;;4987855;28;20718;-82
2021/11/22 09:04:49;;;;;;;27.80;24.80;;;5.10;99.90;;;;;;4988770;28;20261;-79
2021/11/22 09:07:17;;;;;;;31.97;26.83;;;5.20;99.90;;;;;;4990483;28;20207;-79
2021/11/22 09:09:43;;;;;;;29.93;25.30;;;5.20;99.90;;;;;;4988631;28;20629;-80
2021/11/22 09:12:11;;;;;;;28.27;25.33;;;5.20;99.90;;;;;;5003149;28;20226;-78
2021/11/22 09:14:39;;;;;;;29.00;25.97;;;5.20;99.90;;;;;;4990381;28;20229;-78
2021/11/22 09:17:06;;;;;;;28.97;26.07;;;5.20;99.90;;;;;;5019698;28;20245;-82
2021/11/22 09:19:33;;;;;;;29.50;26.40;;;5.30;99.90;;;;;;4995120;28;20197;-80
2021/11/22 09:22:00;;;;;;;29.60;26.37;;;5.30;99.90;;;;;;4989804;28;20225;-80
2021/11/22 09:24:27;;;;;;;29.10;25.97;;;5.20;99.90;;;;;;4990531;28;20256;-80
2021/11/22 09:26:54;;;;;;;29.00;25.97;;;5.20;99.90;;;;;;5004854;28;20255;-80
2021/11/22 09:29:21;;;;;;;29.53;26.50;;;5.20;99.90;;;;;;4989528;28;20194;-78
2021/11/22 09:31:49;;;;;;;28.13;25.13;;;5.20;99.90;;;;;;4991382;28;20230;-79
2021/11/22 09:34:17;;;;;;;29.60;26.47;;;5.30;99.90;;;;;;4991942;28;20724;-79
2021/11/22 09:36:47;;;;;;;30.33;26.80;;;5.30;99.90;;;;;;4987387;28;20287;-78
2021/11/22 09:39:14;;;;;;;30.67;26.23;;;5.30;99.90;;;;;;5001931;28;20256;-78
2021/11/22 09:41:41;;;;;;;34.53;27.43;;;5.30;99.90;;;;;;5000947;28;20284;-79
2021/11/22 09:44:09;;;;;;;27.93;25.10;;;5.30;99.90;;;;;;4990289;28;20197;-78
2021/11/22 09:46:35;;;;;;;28.93;25.13;;;5.30;99.90;;;;;;5002243;28;20201;-78
2021/11/22 09:49:04;;;;;;;27.23;24.40;;;5.40;99.90;;;;;;4988456;28;20264;-79
2021/11/22 09:51:31;;;;;;;29.03;25.93;;;5.40;99.90;;;;;;4991230;28;20250;-79
2021/11/22 09:53:58;;;;;;;29.07;25.90;;;5.40;99.90;;;;;;4990627;28;20636;-79
2021/11/22 09:56:26;;;;;;;29.83;26.30;;;5.50;99.90;;;;;;4985830;28;20670;-80
2021/11/22 09:58:54;;;;;;;29.80;25.80;;;5.50;99.90;;;;;;4986417;28;20193;-79
2021/11/22 10:01:22;;;;;;;27.43;24.53;;;5.50;99.90;;;;;;4990134;28;20212;-79
2021/11/22 10:03:59;;;;;;;28.73;25.63;;;5.50;99.90;;;;;;4989447;28;20275;-80
2021/11/22 10:06:28;;;;;;;32.43;26.70;;;5.50;99.90;;;;;;4987093;28;20205;-81
2021/11/22 10:08:55;;;;;;;29.00;25.90;;;5.60;99.90;;;;;;5003978;28;20246;-78
2021/11/22 10:11:22;;;;;;;28.40;25.00;;;5.60;99.90;;;;;;4990887;28;20300;-78
2021/11/22 10:13:50;;;;;;;27.03;24.30;;;5.70;99.90;;;;;;4986376;28;20272;-78
2021/11/22 10:16:25;;;;;;;27.23;24.40;;;5.80;99.90;;;;;;5002069;28;20248;-78
2021/11/22 10:18:55;;;;;;;27.40;24.50;;;5.90;99.90;;;;;;4988861;28;20200;-79
2021/11/22 10:21:24;;;;;;;27.87;25.17;;;5.90;99.90;;;;;;5003244;28;20205;-79
2021/11/22 10:24:00;;;;;;;27.67;24.90;;;6.00;99.90;;;;;;5002536;28;20204;-79
2021/11/22 10:26:29;;;;;;;27.27;24.60;;;5.90;99.90;;;;;;4987524;28;20741;-80
2021/11/22 10:28:56;;;;;;;27.80;24.93;;;5.90;99.90;;;;;;5002632;28;20305;-80
2021/11/22 10:31:25;;;;;;;27.77;25.10;;;5.90;99.90;;;;;;4989845;28;20686;-80
2021/11/22 10:33:54;;;;;;;28.23;25.30;;;5.90;99.90;;;;;;4986477;28;20214;-80
2021/11/22 10:36:23;;;;;;;26.87;24.30;;;5.80;99.90;;;;;;4993141;28;20198;-80
2021/11/22 10:38:53;;;;;;;28.50;25.47;;;5.80;99.90;;;;;;4990222;28;20201;-80
2021/11/22 10:41:23;;;;;;;27.47;24.67;;;5.80;99.90;;;;;;4993404;28;20736;-80
2021/11/22 10:43:52;;;;;;;26.53;23.87;;;5.70;99.90;;;;;;4991197;28;20198;-80
2021/11/22 10:46:24;;;;;;;26.63;23.97;;;5.80;99.90;;;;;;4989122;28;20402;-79
2021/11/22 10:48:52;;;;;;;26.93;24.57;;;5.80;99.90;;;;;;5009066;28;20205;-80
2021/11/22 10:51:23;;;;;;;28.13;25.50;;;5.90;99.90;;;;;;5009715;28;20232;-78
2021/11/22 10:53:51;;;;;;;26.67;24.07;;;5.90;99.90;;;;;;4990302;28;20217;-80
2021/11/22 10:56:21;;;;;;;26.93;24.33;;;5.80;99.90;;;;;;4989391;28;20209;-81
2021/11/22 10:58:54;;;;;;;25.97;23.23;;;5.80;99.90;;;;;;4989658;28;20239;-80
2021/11/22 11:01:34;;;;;;;25.67;23.47;;;5.90;99.90;;;;;;4987908;28;20202;-80
2021/11/22 11:04:13;;;;;;;25.40;23.07;;;5.90;99.90;;;;;;4988987;28;20198;-79
2021/11/22 11:07:08;;;;;;;;;;;;;;;;;;;;;
2021/11/22 11:09:38;;;;;;;27.07;23.30;;;6.00;99.90;;;;;;4989356;28;20305;-79
2021/11/22 11:12:11;;;;;;;26.10;23.57;;;6.10;99.90;;;;;;4991109;28;20221;-80
2021/11/22 11:14:52;;;;;;;25.80;23.40;;;6.10;99.90;;;;;;4996009;28;20225;-80
2021/11/22 11:17:22;;;;;;;25.60;23.33;;;6.10;99.90;;;;;;4986519;28;20204;-80
2021/11/22 11:19:51;;;;;;;27.60;24.90;;;6.20;99.90;;;;;;4989461;28;20220;-80
2021/11/22 11:22:18;;;;;;;26.13;23.70;;;6.30;99.90;;;;;;5004974;28;20234;-80
2021/11/22 11:24:45;;;;;;;25.30;22.83;;;6.30;99.90;;;;;;5004661;28;20194;-80
2021/11/22 11:27:13;;;;;;;26.13;23.33;;;6.30;99.90;;;;;;5003769;28;20268;-80
2021/11/22 11:29:40;;;;;;;25.23;23.03;;;6.30;99.90;;;;;;4991438;28;20190;-81
2021/11/22 11:32:08;;;;;;;25.20;22.77;;;6.30;99.90;;;;;;5022363;28;20221;-79
2021/11/22 11:34:41;;;;;;;26.67;24.07;;;6.40;99.90;;;;;;4987476;28;20694;-79
2021/11/22 11:37:19;;;;;;;26.47;24.07;;;6.40;99.90;;;;;;4986047;28;20213;-78
2021/11/22 11:40:31;;;;;;;25.23;22.90;;;6.40;99.90;;;;;;4986699;28;20562;-79
2021/11/22 11:43:34;;;;;;;25.20;22.70;;;6.40;99.90;;;;;;4997038;28;20647;-78
2021/11/22 11:46:03;;;;;;;25.03;22.83;;;6.40;99.90;;;;;;4979127;28;20236;-80
2021/11/22 11:48:55;;;;;;;24.20;22.10;;;6.40;99.90;;;;;;4982447;28;20615;-80
2021/11/22 11:51:32;;;;;;;24.20;21.90;;;6.40;99.90;;;;;;4987744;28;20209;-81
2021/11/22 11:54:21;;;;;;;24.10;22.03;;;6.40;99.90;;;;;;4988489;28;20228;-80
2021/11/22 11:56:54;;;;;;;22.93;21.03;;;6.40;99.90;;;;;;4977515;28;20267;-80
2021/11/22 11:59:28;;;;;;;24.70;22.47;;;6.40;99.90;;;;;;4987007;28;20205;-79
2021/11/22 12:01:58;;;;;;;25.17;22.67;;;6.40;99.90;;;;;;4990537;28;20217;-80
2021/11/22 12:04:26;;;;;;;23.07;21.10;;;6.30;99.90;;;;;;4996972;28;20193;-79
2021/11/22 12:06:54;;;;;;;24.53;22.33;;;6.30;99.90;;;;;;4991681;28;20623;-79
2021/11/22 12:09:36;;;;;;;23.63;21.47;;;6.30;99.90;;;;;;5006391;28;20219;-79
2021/11/22 12:12:22;;;;;;;23.67;21.50;;;6.30;99.90;;;;;;4989538;28;20614;-79
2021/11/22 12:14:57;;;;;;;22.60;20.60;;;6.30;99.90;;;;;;4990997;28;20218;-79
2021/11/22 12:17:50;;;;;;;23.30;21.30;;;6.40;99.90;;;;;;4989106;28;20201;-79
2021/11/22 12:20:40;;;;;;;23.00;21.10;;;6.40;99.90;;;;;;5004616;28;20237;-79
2021/11/22 12:23:08;;;;;;;22.30;20.43;;;6.40;99.90;;;;;;5009342;28;20229;-79
2021/11/22 12:25:43;;;;;;;22.20;20.30;;;6.50;99.90;;;;;;4991113;28;20623;-79
2021/11/22 12:28:13;;;;;;;22.17;20.47;;;6.40;99.90;;;;;;4989318;28;20208;-80
2021/11/22 12:30:43;;;;;;;22.90;21.03;;;6.50;99.90;;;;;;4993215;28;20197;-80
2021/11/22 12:33:34;;;;;;;21.47;19.67;;;6.50;99.90;;;;;;4988419;28;20221;-78
2021/11/22 12:36:04;;;;;;;21.67;19.87;;;6.40;99.90;;;;;;4986075;28;20213;-80
2021/11/22 12:38:33;;;;;;;21.17;19.47;;;6.40;99.90;;;;;;4997706;28;20561;-80
2021/11/22 12:41:02;;;;;;;20.10;18.60;;;6.40;99.90;;;;;;4990295;28;20261;-80
2021/11/22 12:43:43;;;;;;;21.27;19.67;;;6.40;99.90;;;;;;4984206;28;20221;-79
2021/11/22 12:46:13;;;;;;;20.27;18.87;;;6.40;99.90;;;;;;4993323;28;20198;-80
2021/11/22 12:48:44;;;;;;;19.43;18.13;;;6.40;99.90;;;;;;4989722;28;20693;-79